createdAt,value
2023-03-16T00:01:29.920Z,20.05
2023-03-16T00:03:36.608Z,24.13
2023-03-16T00:05:41.745Z,21.83
2023-03-16T00:07:47.251Z,21.00
2023-03-16T00:09:54.803Z,21.05
2023-03-16T00:12:00.469Z,23.58
2023-03-16T00:14:06.520Z,22.33
2023-03-16T00:16:16.932Z,22.20
2023-03-16T00:18:22.556Z,20.40
2023-03-16T00:20:28.473Z,20.70
2023-03-16T00:22:34.378Z,24.27
2023-03-16T00:24:39.339Z,20.30
2023-03-16T00:26:46.972Z,20.52
2023-03-16T00:28:54.358Z,25.90
2023-03-16T00:31:00.375Z,18.95
2023-03-16T00:33:05.766Z,22.60
2023-03-16T00:35:12.040Z,18.60
2023-03-16T00:37:19.044Z,22.23
2023-03-16T00:39:24.055Z,21.35
2023-03-16T00:41:29.310Z,21.85
2023-03-16T00:43:41.341Z,22.67
2023-03-16T00:45:47.206Z,21.17
2023-03-16T00:47:54.449Z,20.58
2023-03-16T00:50:01.054Z,22.65
2023-03-16T00:52:07.506Z,20.60
2023-03-16T00:54:12.838Z,22.67
2023-03-16T00:56:19.727Z,25.55
2023-03-16T00:58:24.877Z,19.30
2023-03-16T01:00:32.519Z,26.35
2023-03-16T01:02:37.464Z,21.92
2023-03-16T01:04:43.820Z,21.67
2023-03-16T01:06:49.317Z,21.27
2023-03-16T01:08:55.065Z,23.02
2023-03-16T01:11:04.526Z,22.35
2023-03-16T01:13:10.148Z,20.88
2023-03-16T01:15:16.707Z,24.00
2023-03-16T01:17:25.138Z,24.73
2023-03-16T01:19:30.346Z,21.17
2023-03-16T01:21:38.238Z,21.40
2023-03-16T01:23:44.472Z,21.65
2023-03-16T01:25:53.211Z,25.90
2023-03-16T01:27:58.492Z,25.13
2023-03-16T01:30:04.117Z,27.60
2023-03-16T01:32:10.090Z,23.83
2023-03-16T01:34:18.738Z,18.60
2023-03-16T01:36:25.174Z,23.38
2023-03-16T01:38:40.471Z,19.40
2023-03-16T01:40:45.584Z,22.98
2023-03-16T01:43:02.611Z,18.15
2023-03-16T01:46:14.832Z,20.55
2023-03-16T01:48:25.041Z,17.30
2023-03-16T01:50:33.870Z,21.00
2023-03-16T01:52:40.910Z,19.92
2023-03-16T01:54:51.217Z,17.25
2023-03-16T01:57:05.941Z,20.75
2023-03-16T01:59:19.336Z,19.40
2023-03-16T02:03:30.674Z,17.33
2023-03-16T02:05:55.242Z,22.88
2023-03-16T02:08:04.369Z,19.05
2023-03-16T02:10:13.811Z,20.83
2023-03-16T02:12:20.609Z,18.45
2023-03-16T02:14:31.905Z,23.00
2023-03-16T02:16:37.039Z,22.67
2023-03-16T02:18:42.889Z,16.50
2023-03-16T02:20:58.943Z,21.92
2023-03-16T02:23:05.485Z,22.40
2023-03-16T02:25:11.614Z,18.02
2023-03-16T02:27:26.880Z,18.98
2023-03-16T02:30:08.051Z,16.85
2023-03-16T02:32:21.977Z,22.95
2023-03-16T02:34:29.092Z,25.40
2023-03-16T02:36:36.757Z,24.20
2023-03-16T02:38:41.853Z,20.83
2023-03-16T02:40:58.362Z,24.25
2023-03-16T02:43:07.853Z,23.50
2023-03-16T02:45:20.823Z,24.80
2023-03-16T02:47:36.028Z,24.52
2023-03-16T02:49:44.879Z,22.55
2023-03-16T02:51:51.484Z,19.63
2023-03-16T02:53:56.671Z,26.45
2023-03-16T02:56:03.169Z,21.17
2023-03-16T02:58:11.672Z,20.52
2023-03-16T03:00:22.025Z,19.25
2023-03-16T03:02:29.647Z,18.58
2023-03-16T03:04:34.568Z,22.98
2023-03-16T03:06:40.017Z,27.08
2023-03-16T03:08:45.309Z,25.15
2023-03-16T03:10:50.921Z,19.83
2023-03-16T03:12:55.863Z,23.77
2023-03-16T03:15:01.052Z,28.98
2023-03-16T03:17:15.107Z,22.65
2023-03-16T03:19:20.009Z,27.25
2023-03-16T03:21:26.598Z,21.25
2023-03-16T03:23:31.504Z,22.67
2023-03-16T03:25:36.869Z,25.90
2023-03-16T03:27:43.682Z,24.73
2023-03-16T03:29:52.422Z,21.80
2023-03-16T03:31:58.935Z,19.88
2023-03-16T03:34:06.920Z,20.70
2023-03-16T03:36:14.865Z,24.30
2023-03-16T03:38:21.011Z,22.10
2023-03-16T03:40:27.529Z,21.23
2023-03-16T03:42:39.724Z,23.17
2023-03-16T03:44:46.140Z,17.85
2023-03-16T03:46:52.547Z,17.80
2023-03-16T03:49:02.071Z,23.15
2023-03-16T03:51:13.099Z,20.27
2023-03-16T03:53:23.759Z,19.13
2023-03-16T03:55:53.636Z,20.35
2023-03-16T03:58:00.008Z,19.40
2023-03-16T04:00:07.919Z,16.25
2023-03-16T04:02:20.499Z,17.48
2023-03-16T04:04:28.913Z,21.80
2023-03-16T04:06:37.389Z,20.92
2023-03-16T04:08:42.382Z,21.70
2023-03-16T04:10:50.457Z,18.38
2023-03-16T04:12:59.499Z,18.02
2023-03-16T04:15:06.820Z,20.67
2023-03-16T04:17:20.987Z,16.58
2023-03-16T04:19:28.629Z,20.45
2023-03-16T04:21:37.087Z,21.58
2023-03-16T04:23:42.644Z,18.58
2023-03-16T04:25:48.284Z,19.95
2023-03-16T04:27:56.444Z,17.75
2023-03-16T04:30:06.011Z,17.55
2023-03-16T04:32:11.719Z,16.08
2023-03-16T04:34:18.536Z,20.05
2023-03-16T04:36:26.134Z,15.10
2023-03-16T04:38:36.586Z,14.70
2023-03-16T04:40:41.569Z,16.88
2023-03-16T04:42:54.916Z,16.92
2023-03-16T04:45:00.762Z,15.95
2023-03-16T04:47:05.906Z,21.42
2023-03-16T04:49:16.038Z,16.40
2023-03-16T04:51:24.072Z,18.27
2023-03-16T04:53:44.932Z,15.35
2023-03-16T04:56:07.484Z,16.45
2023-03-16T04:58:13.922Z,14.00
2023-03-16T05:00:19.928Z,19.52
2023-03-16T05:02:34.560Z,17.10
2023-03-16T05:04:40.274Z,15.77
2023-03-16T05:06:49.010Z,18.13
2023-03-16T05:08:58.368Z,16.77
2023-03-16T05:11:03.338Z,15.68
2023-03-16T05:13:13.581Z,15.80
2023-03-16T05:15:19.654Z,18.65
2023-03-16T05:17:34.765Z,17.45
2023-03-16T05:19:40.354Z,18.55
2023-03-16T05:21:45.751Z,16.17
2023-03-16T05:23:51.965Z,12.82
2023-03-16T05:26:02.846Z,17.27
2023-03-16T05:28:10.330Z,18.50
2023-03-16T05:30:26.865Z,15.70
2023-03-16T05:32:34.256Z,14.52
2023-03-16T05:34:39.197Z,12.98
2023-03-16T05:36:45.156Z,13.90
2023-03-16T05:38:53.655Z,15.48
2023-03-16T05:41:09.202Z,12.55
2023-03-16T05:43:47.568Z,17.48
2023-03-16T05:45:54.008Z,13.13
2023-03-16T05:47:59.626Z,18.05
2023-03-16T05:50:05.379Z,15.63
2023-03-16T05:52:15.136Z,17.20
2023-03-16T05:54:20.928Z,16.45
2023-03-16T05:56:31.057Z,16.45
2023-03-16T05:58:37.812Z,20.45
2023-03-16T06:00:46.762Z,17.88
2023-03-16T06:03:04.954Z,19.33
2023-03-16T06:05:13.862Z,15.10
2023-03-16T06:07:21.316Z,19.88
2023-03-16T06:09:28.311Z,19.55
2023-03-16T06:11:35.955Z,16.08
2023-03-16T06:13:41.747Z,17.73
2023-03-16T06:15:46.826Z,21.08
2023-03-16T06:17:52.736Z,17.45
2023-03-16T06:19:58.160Z,22.77
2023-03-16T06:22:03.138Z,20.10
2023-03-16T06:24:10.396Z,20.20
2023-03-16T06:26:15.309Z,23.20
2023-03-16T06:28:26.324Z,24.45
2023-03-16T06:30:32.157Z,25.92
2023-03-16T06:32:39.040Z,21.80
2023-03-16T06:34:44.443Z,24.02
2023-03-16T06:36:50.339Z,25.25
2023-03-16T06:38:55.356Z,22.00
2023-03-16T06:41:13.085Z,21.27
2023-03-16T06:43:18.072Z,29.77
2023-03-16T06:45:26.213Z,26.67
2023-03-16T06:47:33.982Z,22.25
2023-03-16T06:49:39.223Z,20.65
2023-03-16T06:51:52.232Z,21.70
2023-03-16T06:53:58.636Z,25.95
2023-03-16T06:56:03.884Z,22.67
2023-03-16T06:58:11.950Z,20.25
2023-03-16T07:00:18.897Z,21.10
2023-03-16T07:02:26.469Z,23.13
2023-03-16T07:04:31.942Z,20.48
2023-03-16T07:06:36.965Z,19.13
2023-03-16T07:08:42.568Z,22.65
2023-03-16T07:10:48.579Z,22.38
2023-03-16T07:12:53.589Z,17.27
2023-03-16T07:14:58.500Z,19.15
2023-03-16T07:17:04.465Z,23.67
2023-03-16T07:19:12.074Z,21.75
2023-03-16T07:21:17.386Z,23.30
2023-03-16T07:23:24.412Z,21.70
2023-03-16T07:25:31.724Z,24.00
2023-03-16T07:27:38.837Z,21.95
2023-03-16T07:29:45.231Z,18.80
2023-03-16T07:31:50.583Z,23.38
2023-03-16T07:34:00.505Z,22.52
2023-03-16T07:36:22.496Z,22.02
2023-03-16T07:38:34.355Z,18.88
2023-03-16T07:40:40.339Z,21.35
2023-03-16T07:42:51.325Z,22.60
2023-03-16T07:45:13.611Z,23.80
2023-03-16T07:47:19.846Z,21.70
2023-03-16T07:49:24.802Z,18.52
2023-03-16T07:51:34.315Z,23.38
2023-03-16T07:53:40.049Z,24.88
2023-03-16T07:55:58.196Z,22.67
2023-03-16T07:58:05.014Z,23.25
2023-03-16T08:00:14.444Z,22.13
2023-03-16T08:02:23.666Z,24.98
2023-03-16T08:04:29.684Z,21.85
2023-03-16T08:06:40.516Z,27.77
2023-03-16T08:08:46.538Z,24.17
2023-03-16T08:11:00.035Z,23.60
2023-03-16T08:13:15.862Z,27.30
2023-03-16T08:15:23.128Z,28.00
2023-03-16T08:17:31.444Z,25.85
2023-03-16T08:19:38.836Z,22.92
2023-03-16T08:22:01.066Z,19.33
2023-03-16T08:24:13.328Z,16.20
2023-03-16T08:26:20.242Z,19.17
2023-03-16T08:28:27.728Z,17.63
2023-03-16T08:30:34.531Z,18.40
2023-03-16T08:33:11.509Z,14.25
2023-03-16T08:35:19.278Z,14.10
2023-03-16T08:37:28.592Z,17.70
2023-03-16T08:39:35.695Z,10.18
2023-03-16T08:41:46.208Z,9.35
2023-03-16T08:44:07.953Z,7.15
2023-03-16T08:46:13.436Z,9.70
2023-03-16T08:48:25.523Z,11.93
2023-03-16T08:50:31.277Z,8.85
2023-03-16T08:52:41.229Z,6.85
2023-03-16T08:55:01.475Z,8.90
2023-03-16T08:57:09.576Z,6.85
2023-03-16T08:59:28.726Z,6.35
2023-03-16T09:01:34.930Z,8.40
2023-03-16T09:03:40.740Z,5.90
2023-03-16T09:05:45.760Z,7.32
2023-03-16T09:07:54.101Z,6.07
2023-03-16T09:09:59.308Z,4.78
2023-03-16T09:12:06.196Z,5.20
2023-03-16T09:14:11.527Z,5.72
2023-03-16T09:16:19.300Z,7.22
2023-03-16T09:18:26.234Z,5.03
2023-03-16T09:20:33.368Z,4.53
2023-03-16T09:22:39.508Z,5.45
2023-03-16T09:24:46.954Z,6.97
2023-03-16T09:26:52.165Z,4.25
2023-03-16T09:28:57.415Z,6.45
2023-03-16T09:31:03.124Z,5.53
2023-03-16T09:33:08.798Z,6.30
2023-03-16T09:35:13.674Z,3.75
2023-03-16T09:37:18.875Z,5.13
2023-03-16T09:39:23.817Z,4.07
2023-03-16T09:41:44.864Z,3.33
2023-03-16T09:44:09.217Z,3.95
2023-03-16T09:46:22.792Z,3.30
2023-03-16T09:48:30.916Z,4.95
2023-03-16T09:50:48.714Z,5.03
2023-03-16T09:53:00.133Z,7.18
2023-03-16T09:55:10.732Z,4.80
2023-03-16T09:57:31.308Z,4.45
2023-03-16T09:59:36.192Z,6.93
2023-03-16T10:01:53.789Z,3.20
2023-03-16T10:04:14.406Z,5.93
2023-03-16T10:06:19.500Z,3.55
2023-03-16T10:08:27.837Z,4.78
2023-03-16T10:11:02.674Z,4.70
2023-03-16T10:13:21.414Z,4.03
2023-03-16T10:15:29.887Z,4.03
2023-03-16T10:17:42.045Z,5.35
2023-03-16T10:19:52.644Z,6.20
2023-03-16T10:22:00.580Z,4.15
2023-03-16T10:24:07.544Z,5.05
2023-03-16T10:26:20.425Z,4.47
2023-03-16T10:28:32.236Z,5.60
2023-03-16T10:30:41.836Z,5.47
2023-03-16T10:32:49.564Z,6.43
2023-03-16T10:35:02.405Z,5.93
2023-03-16T10:37:09.532Z,4.38
2023-03-16T10:39:17.584Z,4.55
2023-03-16T10:41:30.381Z,5.60
2023-03-16T10:43:38.152Z,3.67
2023-03-16T10:45:46.493Z,5.20
2023-03-16T10:47:51.439Z,5.53
2023-03-16T10:49:56.518Z,6.90
2023-03-16T10:52:09.173Z,4.28
2023-03-16T10:54:19.966Z,4.80
2023-03-16T10:56:28.152Z,6.75
2023-03-16T10:58:42.060Z,5.78
2023-03-16T11:00:50.166Z,6.50
2023-03-16T11:02:57.309Z,4.53
2023-03-16T11:05:02.697Z,5.72
2023-03-16T11:07:14.980Z,6.30
2023-03-16T11:09:27.917Z,5.07
2023-03-16T11:11:34.694Z,6.13
2023-03-16T11:13:48.419Z,4.57
2023-03-16T11:16:00.564Z,4.75
2023-03-16T11:18:06.233Z,3.92
2023-03-16T11:20:20.323Z,5.55
2023-03-16T11:22:27.862Z,4.95
2023-03-16T11:24:47.767Z,4.78
2023-03-16T11:26:58.109Z,4.38
2023-03-16T11:29:17.872Z,4.78
2023-03-16T11:31:32.812Z,4.45
2023-03-16T11:33:38.065Z,5.75
2023-03-16T11:35:59.322Z,4.20
2023-03-16T11:38:16.334Z,4.05
2023-03-16T11:40:38.803Z,3.85
2023-03-16T11:42:58.261Z,5.70
2023-03-16T11:45:21.608Z,4.32
2023-03-16T11:47:47.513Z,4.72
2023-03-16T11:50:05.506Z,5.07
2023-03-16T11:52:20.783Z,6.40
2023-03-16T11:54:50.888Z,4.88
2023-03-16T11:57:01.867Z,5.90
2023-03-16T11:59:51.849Z,5.18
2023-03-16T12:02:31.996Z,4.83
2023-03-16T12:05:08.794Z,5.00
2023-03-16T12:07:30.806Z,5.68
2023-03-16T12:10:06.594Z,4.22
2023-03-16T12:12:31.085Z,5.82
2023-03-16T12:14:44.229Z,6.57
2023-03-16T12:16:57.335Z,5.28
2023-03-16T12:21:18.466Z,5.70
2023-03-16T12:23:29.071Z,6.95
2023-03-16T12:25:39.562Z,8.77
2023-03-16T12:27:45.614Z,5.60
2023-03-16T12:30:05.025Z,7.85
2023-03-16T12:32:19.122Z,6.50
2023-03-16T12:34:35.955Z,10.23
2023-03-16T12:37:10.991Z,6.88
2023-03-16T12:39:26.114Z,6.82
2023-03-16T12:41:42.510Z,6.00
2023-03-16T12:44:04.625Z,6.13
2023-03-16T12:46:15.652Z,7.63
2023-03-16T12:48:30.267Z,7.35
2023-03-16T12:50:37.903Z,7.18
2023-03-16T12:52:44.921Z,6.05
2023-03-16T12:54:54.843Z,6.57
2023-03-16T12:57:05.643Z,6.00
2023-03-16T12:59:11.677Z,9.27
2023-03-16T13:01:20.834Z,6.50
2023-03-16T13:03:28.924Z,7.38
2023-03-16T13:05:39.231Z,8.63
2023-03-16T13:07:51.584Z,6.25
2023-03-16T13:10:01.863Z,5.07
2023-03-16T13:12:07.535Z,7.85
2023-03-16T13:14:18.589Z,7.65
2023-03-16T13:16:30.172Z,8.65
2023-03-16T13:18:45.443Z,6.85
2023-03-16T13:20:59.747Z,7.35
2023-03-16T13:23:24.444Z,7.60
2023-03-16T13:25:43.455Z,7.43
2023-03-16T13:27:51.328Z,6.47
2023-03-16T13:30:00.337Z,6.88
2023-03-16T13:32:11.553Z,6.30
2023-03-16T13:34:23.594Z,8.10
2023-03-16T13:36:33.523Z,7.32
2023-03-16T13:38:39.200Z,9.38
2023-03-16T13:40:49.341Z,7.50
2023-03-16T13:42:56.292Z,6.22
2023-03-16T13:45:07.786Z,7.50
2023-03-16T13:47:19.944Z,8.57
2023-03-16T13:49:25.758Z,8.73
2023-03-16T13:51:37.409Z,6.75
2023-03-16T13:53:44.598Z,7.28
2023-03-16T13:55:50.706Z,8.63
2023-03-16T13:57:56.141Z,6.47
2023-03-16T14:00:20.449Z,6.57
2023-03-16T14:02:25.405Z,8.90
2023-03-16T14:04:34.656Z,8.90
2023-03-16T14:06:43.207Z,5.60
2023-03-16T14:08:52.481Z,6.95
2023-03-16T14:11:01.333Z,9.75
2023-03-16T14:13:12.499Z,8.65
2023-03-16T14:15:19.138Z,7.10
2023-03-16T14:17:26.124Z,6.30
2023-03-16T14:19:36.072Z,6.32
2023-03-16T14:21:48.330Z,6.35
2023-03-16T14:23:57.791Z,6.20
2023-03-16T14:26:03.246Z,6.50
2023-03-16T14:28:10.599Z,5.43
2023-03-16T14:30:24.851Z,7.80
2023-03-16T14:32:34.412Z,5.15
2023-03-16T14:34:41.623Z,7.40
2023-03-16T14:36:49.708Z,8.52
2023-03-16T14:38:55.014Z,5.50
2023-03-16T14:41:05.758Z,8.48
2023-03-16T14:43:12.770Z,6.18
2023-03-16T14:45:20.385Z,7.82
2023-03-16T14:47:30.777Z,5.53
2023-03-16T14:49:40.011Z,6.45
2023-03-16T14:51:52.704Z,7.53
2023-03-16T14:53:57.701Z,5.18
2023-03-16T14:56:02.868Z,6.28
2023-03-16T14:58:07.912Z,6.80
2023-03-16T15:00:17.940Z,7.13
2023-03-16T15:02:30.317Z,7.05
2023-03-16T15:04:38.712Z,7.32
2023-03-16T15:06:44.571Z,6.03
2023-03-16T15:08:52.260Z,6.22
2023-03-16T15:11:01.098Z,5.70
2023-03-16T15:13:13.357Z,9.80
2023-03-16T15:15:22.608Z,7.55
2023-03-16T15:17:27.737Z,8.15
2023-03-16T15:19:32.606Z,10.80
2023-03-16T15:21:37.634Z,7.70
2023-03-16T15:23:43.433Z,8.13
2023-03-16T15:25:53.813Z,8.68
2023-03-16T15:27:59.253Z,8.32
2023-03-16T15:30:04.862Z,9.00
2023-03-16T15:32:15.601Z,6.70
2023-03-16T15:34:20.567Z,7.07
2023-03-16T15:36:26.162Z,9.63
2023-03-16T15:38:34.713Z,7.97
2023-03-16T15:40:41.811Z,6.82
2023-03-16T15:42:49.431Z,6.63
2023-03-16T15:44:54.337Z,6.38
2023-03-16T15:47:00.703Z,11.48
2023-03-16T15:49:05.652Z,7.20
2023-03-16T15:51:24.069Z,5.00
2023-03-16T15:53:35.728Z,5.20
2023-03-16T15:55:44.594Z,7.57
2023-03-16T15:57:59.263Z,6.43
2023-03-16T16:00:04.886Z,4.72
2023-03-16T16:02:30.588Z,5.88
2023-03-16T16:04:35.552Z,6.82
2023-03-16T16:06:41.299Z,6.85
2023-03-16T16:08:47.590Z,6.35
2023-03-16T16:10:53.635Z,6.60
2023-03-16T16:13:02.204Z,6.72
2023-03-16T16:15:20.046Z,7.60
2023-03-16T16:17:43.749Z,6.00
2023-03-16T16:19:51.059Z,5.45
2023-03-16T16:21:56.297Z,5.22
2023-03-16T16:24:03.242Z,6.65
2023-03-16T16:26:23.250Z,4.53
2023-03-16T16:28:35.709Z,5.25
2023-03-16T16:30:40.746Z,7.75
2023-03-16T16:32:46.451Z,7.95
2023-03-16T16:35:03.332Z,5.57
2023-03-16T16:37:12.676Z,5.25
2023-03-16T16:39:18.144Z,6.47
2023-03-16T16:41:29.969Z,7.13
2023-03-16T16:43:41.644Z,5.88
2023-03-16T16:45:47.424Z,6.43
2023-03-16T16:47:56.034Z,5.32
2023-03-16T16:50:02.076Z,4.97
2023-03-16T16:52:08.691Z,8.10
2023-03-16T16:54:19.365Z,5.60
2023-03-16T16:56:31.211Z,5.88
2023-03-16T16:58:40.678Z,5.28
2023-03-16T17:00:45.780Z,7.22
2023-03-16T17:02:54.226Z,4.97
2023-03-16T17:05:00.052Z,5.68
2023-03-16T17:07:04.993Z,5.97
2023-03-16T17:09:10.157Z,5.60
2023-03-16T17:11:23.585Z,6.00
2023-03-16T17:13:32.149Z,6.43
2023-03-16T17:15:40.063Z,6.00
2023-03-16T17:17:45.867Z,6.65
2023-03-16T17:19:53.819Z,7.38
2023-03-16T17:22:01.473Z,5.78
2023-03-16T17:24:06.619Z,5.38
2023-03-16T17:26:19.184Z,5.70
2023-03-16T17:28:26.265Z,6.05
2023-03-16T17:30:34.373Z,9.38
2023-03-16T17:32:41.976Z,5.43
2023-03-16T17:34:46.963Z,6.60
2023-03-16T17:36:52.443Z,6.22
2023-03-16T17:38:58.067Z,6.75
2023-03-16T17:41:03.663Z,6.97
2023-03-16T17:43:16.162Z,7.40
2023-03-16T17:45:24.000Z,9.38
2023-03-16T17:47:36.325Z,7.32
2023-03-16T17:49:49.081Z,4.82
2023-03-16T17:51:54.563Z,4.00
2023-03-16T17:53:59.613Z,6.28
2023-03-16T17:56:05.630Z,7.20
2023-03-16T17:58:28.937Z,8.93
2023-03-16T18:00:37.296Z,7.80
2023-03-16T18:02:47.191Z,7.20
2023-03-16T18:04:54.679Z,6.35
2023-03-16T18:06:59.553Z,6.00
2023-03-16T18:09:04.721Z,6.05
2023-03-16T18:11:18.330Z,7.55
2023-03-16T18:15:36.545Z,7.10
2023-03-16T18:17:41.490Z,6.68
2023-03-16T18:19:48.871Z,5.43
2023-03-16T18:21:57.396Z,5.00
2023-03-16T18:24:02.619Z,5.00
2023-03-16T18:26:09.407Z,6.70
2023-03-16T18:28:16.524Z,4.68
2023-03-16T18:30:21.796Z,7.28
2023-03-16T18:32:32.348Z,4.72
2023-03-16T18:34:37.640Z,8.52
2023-03-16T18:36:45.112Z,8.00
2023-03-16T18:38:54.680Z,5.85
2023-03-16T18:41:02.449Z,6.95
2023-03-16T18:43:08.871Z,6.97
2023-03-16T18:45:15.324Z,6.65
2023-03-16T18:47:22.497Z,6.35
2023-03-16T18:49:34.376Z,7.05
2023-03-16T18:51:40.261Z,8.38
2023-03-16T18:53:45.400Z,5.43
2023-03-16T18:55:55.092Z,6.55
2023-03-16T18:58:01.507Z,6.03
2023-03-16T19:00:08.596Z,5.55
2023-03-16T19:02:37.261Z,5.78
2023-03-16T19:04:42.782Z,6.97
2023-03-16T19:06:48.386Z,5.78
2023-03-16T19:08:53.616Z,5.70
2023-03-16T19:11:05.060Z,7.93
2023-03-16T19:13:18.627Z,5.38
2023-03-16T19:15:26.709Z,6.97
2023-03-16T19:17:31.698Z,7.63
2023-03-16T19:19:36.615Z,4.60
2023-03-16T19:21:42.726Z,6.55
2023-03-16T19:23:50.788Z,6.35
2023-03-16T19:25:57.960Z,6.97
2023-03-16T19:28:07.305Z,6.35
2023-03-16T19:30:25.835Z,5.43
2023-03-16T19:32:30.763Z,6.93
2023-03-16T19:34:35.699Z,5.10
2023-03-16T19:36:41.275Z,4.93
2023-03-16T19:38:50.279Z,4.40
2023-03-16T19:40:58.720Z,5.97
2023-03-16T19:43:07.094Z,6.88
2023-03-16T19:45:25.428Z,5.30
2023-03-16T19:47:34.894Z,9.77
2023-03-16T19:49:39.773Z,6.40
2023-03-16T19:51:44.658Z,5.32
2023-03-16T19:53:50.067Z,4.70
2023-03-16T19:55:56.867Z,5.55
2023-03-16T19:58:07.619Z,6.72
2023-03-16T20:00:23.313Z,6.25
2023-03-16T20:02:32.414Z,8.27
2023-03-16T20:04:38.162Z,7.35
2023-03-16T20:06:43.434Z,6.30
2023-03-16T20:08:49.273Z,7.30
2023-03-16T20:10:57.148Z,5.68
2023-03-16T20:13:07.627Z,7.38
2023-03-16T20:15:17.285Z,6.13
2023-03-16T20:17:26.126Z,8.02
2023-03-16T20:19:31.246Z,7.18
2023-03-16T20:21:36.174Z,7.75
2023-03-16T20:23:41.270Z,6.90
2023-03-16T20:25:46.626Z,9.82
2023-03-16T20:27:58.070Z,6.93
2023-03-16T20:30:05.929Z,10.30
2023-03-16T20:32:21.135Z,7.78
2023-03-16T20:34:29.387Z,7.47
2023-03-16T20:36:34.447Z,6.78
2023-03-16T20:38:39.321Z,9.88
2023-03-16T20:40:45.761Z,9.18
2023-03-16T20:42:52.649Z,9.32
2023-03-16T20:44:57.630Z,9.00
2023-03-16T20:47:05.113Z,10.60
2023-03-16T20:49:34.074Z,8.43
2023-03-16T20:51:38.931Z,10.20
2023-03-16T20:53:45.123Z,11.18
2023-03-16T20:55:50.340Z,7.78
2023-03-16T20:57:57.730Z,8.25
2023-03-16T21:00:02.740Z,9.40
2023-03-16T21:02:27.160Z,9.23
2023-03-16T21:04:32.482Z,9.77
2023-03-16T21:06:38.033Z,7.50
2023-03-16T21:08:42.911Z,8.63
2023-03-16T21:10:50.364Z,10.75
2023-03-16T21:12:58.412Z,10.63
2023-03-16T21:15:05.002Z,11.05
2023-03-16T21:17:26.503Z,10.63
2023-03-16T21:19:31.698Z,10.82
2023-03-16T21:21:36.580Z,11.02
2023-03-16T21:23:41.910Z,10.93
2023-03-16T21:25:51.004Z,10.45
2023-03-16T21:27:58.399Z,11.95
2023-03-16T21:30:19.597Z,10.70
2023-03-16T21:32:30.937Z,11.45
2023-03-16T21:34:38.913Z,9.98
2023-03-16T21:36:44.578Z,12.45
2023-03-16T21:38:53.250Z,8.95
2023-03-16T21:40:58.481Z,11.73
2023-03-16T21:43:03.376Z,10.68
2023-03-16T21:45:10.730Z,10.38
2023-03-16T21:47:29.226Z,9.18
2023-03-16T21:49:34.097Z,8.65
2023-03-16T21:51:40.439Z,9.63
2023-03-16T21:53:46.524Z,11.25
2023-03-16T21:55:52.336Z,11.43
2023-03-16T21:57:58.631Z,9.38
2023-03-16T22:00:05.102Z,10.95
2023-03-16T22:02:22.681Z,10.95
2023-03-16T22:04:30.724Z,12.68
2023-03-16T22:06:36.028Z,10.30
2023-03-16T22:08:41.173Z,10.05
2023-03-16T22:10:47.121Z,10.25
2023-03-16T22:12:52.752Z,12.23
2023-03-16T22:14:57.871Z,13.52
2023-03-16T22:17:02.988Z,9.10
2023-03-16T22:19:08.589Z,12.18
2023-03-16T22:21:30.316Z,10.35
2023-03-16T22:23:37.728Z,10.90
2023-03-16T22:25:42.837Z,10.90
2023-03-16T22:27:48.096Z,13.20
2023-03-16T22:29:53.479Z,12.40
2023-03-16T22:32:03.052Z,10.00
2023-03-16T22:34:09.335Z,10.13
2023-03-16T22:36:22.319Z,13.98
2023-03-16T22:38:27.242Z,10.70
2023-03-16T22:40:37.428Z,9.38
2023-03-16T22:42:42.505Z,9.45
2023-03-16T22:44:48.091Z,9.80
2023-03-16T22:46:53.045Z,8.63
2023-03-16T22:48:59.348Z,9.93
2023-03-16T22:51:07.613Z,11.52
2023-03-16T22:53:22.195Z,12.52
2023-03-16T22:55:33.236Z,13.45
2023-03-16T22:57:38.170Z,10.52
2023-03-16T22:59:43.184Z,9.15
2023-03-16T23:01:50.440Z,9.32
2023-03-16T23:03:55.615Z,11.20
2023-03-16T23:06:01.837Z,9.23
2023-03-16T23:08:21.143Z,11.60
2023-03-16T23:10:29.668Z,11.02
2023-03-16T23:12:35.329Z,9.07
2023-03-16T23:14:41.357Z,10.95
2023-03-16T23:16:47.623Z,10.10
2023-03-16T23:18:54.055Z,9.30
2023-03-16T23:20:59.299Z,11.10
2023-03-16T23:23:04.183Z,10.05
2023-03-16T23:25:12.532Z,13.88
2023-03-16T23:27:22.337Z,9.90
2023-03-16T23:29:28.897Z,12.82
2023-03-16T23:31:34.749Z,13.68
2023-03-16T23:33:39.718Z,10.70
2023-03-16T23:35:47.147Z,10.95
2023-03-16T23:37:53.321Z,8.63
2023-03-16T23:39:58.851Z,8.30
2023-03-16T23:42:07.530Z,9.73
2023-03-16T23:44:18.081Z,11.27
2023-03-16T23:46:26.069Z,9.55
2023-03-16T23:48:31.457Z,9.45
2023-03-16T23:50:38.872Z,10.95
2023-03-16T23:52:44.010Z,10.55
2023-03-16T23:54:50.132Z,15.45
2023-03-16T23:56:55.254Z,11.45
2023-03-16T23:59:02.724Z,11.73
